createdAt,value
2018-06-10T00:00:05.984Z,23.30
2018-06-10T00:02:33.412Z,23.40
2018-06-10T00:05:00.865Z,22.90
2018-06-10T00:07:28.271Z,22.90
2018-06-10T00:09:55.900Z,22.50
2018-06-10T00:12:23.368Z,22.70
2018-06-10T00:14:50.800Z,22.10
2018-06-10T00:17:18.200Z,22.30
2018-06-10T00:19:45.651Z,21.90
2018-06-10T00:22:13.064Z,21.80
2018-06-10T00:24:40.520Z,21.80
2018-06-10T00:27:07.921Z,22.00
2018-06-10T00:29:35.393Z,21.70
2018-06-10T00:32:03.057Z,21.70
2018-06-10T00:34:30.443Z,21.70
2018-06-10T00:36:57.871Z,21.90
2018-06-10T00:39:25.280Z,21.60
2018-06-10T00:41:52.672Z,21.70
2018-06-10T00:44:20.668Z,21.60
2018-06-10T00:46:48.058Z,21.50
2018-06-10T00:49:15.495Z,21.40
2018-06-10T00:51:42.899Z,21.70
2018-06-10T00:54:10.352Z,21.60
2018-06-10T00:56:47.160Z,21.50
2018-06-10T00:59:14.532Z,21.40
2018-06-10T01:01:41.939Z,21.40
2018-06-10T01:04:09.949Z,21.40
2018-06-10T01:06:37.348Z,21.50
2018-06-10T01:09:07.867Z,21.80
2018-06-10T01:11:35.556Z,21.60
2018-06-10T01:14:03.108Z,21.30
2018-06-10T01:16:30.548Z,21.30
2018-06-10T01:18:58.010Z,21.40
2018-06-10T01:21:25.436Z,21.30
2018-06-10T01:23:53.827Z,21.30
2018-06-10T01:26:26.960Z,21.30
2018-06-10T01:28:54.371Z,21.30
2018-06-10T01:31:21.778Z,21.50
2018-06-10T01:33:49.179Z,21.30
2018-06-10T01:36:16.583Z,21.30
2018-06-10T01:38:43.957Z,21.20
2018-06-10T01:41:11.355Z,21.50
2018-06-10T01:43:38.743Z,21.20
2018-06-10T01:46:06.274Z,21.20
2018-06-10T01:48:33.741Z,21.20
2018-06-10T01:51:01.198Z,21.20
2018-06-10T01:53:28.608Z,21.20
2018-06-10T01:55:56.086Z,21.30
2018-06-10T01:58:23.572Z,21.30
2018-06-10T02:00:50.965Z,21.30
2018-06-10T02:03:18.348Z,21.60
2018-06-10T02:05:45.774Z,21.50
2018-06-10T02:08:13.192Z,21.20
2018-06-10T02:10:40.625Z,21.20
2018-06-10T02:13:08.011Z,21.30
2018-06-10T02:15:35.440Z,21.50
2018-06-10T02:18:02.895Z,21.30
2018-06-10T02:20:30.309Z,21.50
2018-06-10T02:22:57.776Z,21.30
2018-06-10T02:25:25.204Z,21.10
2018-06-10T02:27:52.650Z,21.10
2018-06-10T02:30:20.075Z,21.50
2018-06-10T02:32:47.516Z,21.30
2018-06-10T02:35:14.944Z,21.30
2018-06-10T02:37:42.370Z,21.20
2018-06-10T02:40:09.793Z,21.30
2018-06-10T02:42:37.329Z,21.10
2018-06-10T02:45:04.841Z,21.00
2018-06-10T02:47:32.348Z,21.00
2018-06-10T02:49:59.765Z,21.00
2018-06-10T02:52:27.224Z,20.90
2018-06-10T02:54:54.620Z,20.90
2018-06-10T02:57:22.017Z,20.80
2018-06-10T02:59:49.385Z,21.20
2018-06-10T03:02:16.804Z,20.80
2018-06-10T03:04:44.264Z,20.80
2018-06-10T03:07:11.671Z,20.80
2018-06-10T03:09:39.076Z,20.70
2018-06-10T03:12:06.492Z,21.00
2018-06-10T03:14:33.872Z,20.80
2018-06-10T03:17:01.952Z,21.20
2018-06-10T03:21:56.772Z,20.80
2018-06-10T03:24:24.138Z,20.80
2018-06-10T03:26:51.508Z,21.10
2018-06-10T03:29:18.910Z,20.70
2018-06-10T03:31:46.321Z,21.30
2018-06-10T03:34:13.708Z,21.20
2018-06-10T03:36:41.092Z,21.00
2018-06-10T03:39:08.473Z,21.10
2018-06-10T03:41:35.853Z,21.10
2018-06-10T03:44:03.245Z,21.30
2018-06-10T03:46:30.636Z,21.00
2018-06-10T03:48:58.060Z,21.00
2018-06-10T03:51:25.452Z,21.00
2018-06-10T03:53:52.801Z,21.00
2018-06-10T03:56:20.181Z,21.30
2018-06-10T03:58:47.536Z,21.10
2018-06-10T04:01:14.964Z,21.20
2018-06-10T04:03:42.345Z,21.10
2018-06-10T04:06:09.720Z,21.20
2018-06-10T04:08:37.071Z,21.00
2018-06-10T04:11:04.564Z,21.10
2018-06-10T04:13:31.987Z,21.00
2018-06-10T04:15:59.440Z,21.30
2018-06-10T04:18:26.841Z,21.00
2018-06-10T04:20:54.216Z,21.20
2018-06-10T04:23:21.612Z,21.00
2018-06-10T04:25:48.969Z,21.40
2018-06-10T04:28:16.340Z,21.20
2018-06-10T04:30:43.780Z,21.10
2018-06-10T04:33:11.223Z,21.00
2018-06-10T04:35:38.647Z,21.10
2018-06-10T04:38:06.082Z,21.10
2018-06-10T04:40:33.484Z,21.10
2018-06-10T04:43:01.508Z,21.10
2018-06-10T04:45:28.883Z,21.10
2018-06-10T04:47:56.293Z,21.10
2018-06-10T04:50:23.704Z,21.10
2018-06-10T04:52:51.103Z,21.10
2018-06-10T04:55:18.492Z,21.20
2018-06-10T04:57:45.938Z,21.50
2018-06-10T05:00:13.360Z,21.10
2018-06-10T05:02:40.756Z,20.70
2018-06-10T05:05:08.147Z,21.10
2018-06-10T05:07:35.521Z,21.00
2018-06-10T05:10:02.933Z,21.00
2018-06-10T05:12:30.307Z,21.10
2018-06-10T05:14:57.704Z,21.20
2018-06-10T05:17:25.101Z,21.20
2018-06-10T05:19:52.575Z,21.10
2018-06-10T05:22:19.942Z,21.30
2018-06-10T05:24:47.331Z,21.10
2018-06-10T05:27:14.744Z,21.10
2018-06-10T05:29:42.132Z,21.50
2018-06-10T05:32:09.524Z,21.20
2018-06-10T05:34:36.959Z,21.70
2018-06-10T05:37:04.372Z,21.20
2018-06-10T05:39:31.752Z,21.80
2018-06-10T05:41:59.157Z,21.40
2018-06-10T05:44:26.561Z,21.80
2018-06-10T05:46:53.961Z,21.40
2018-06-10T05:49:21.368Z,21.40
2018-06-10T05:51:48.732Z,21.50
2018-06-10T05:54:16.180Z,21.70
2018-06-10T05:56:43.629Z,21.30
2018-06-10T05:59:11.027Z,21.40
2018-06-10T06:01:38.632Z,21.50
2018-06-10T06:04:06.076Z,21.50
2018-06-10T06:06:33.491Z,21.90
2018-06-10T06:09:00.931Z,21.60
2018-06-10T06:11:28.313Z,21.70
2018-06-10T06:13:55.717Z,21.80
2018-06-10T06:16:23.092Z,21.50
2018-06-10T06:18:50.482Z,21.50
2018-06-10T06:21:17.883Z,21.90
2018-06-10T06:23:45.332Z,21.60
2018-06-10T06:26:12.860Z,21.40
2018-06-10T06:28:40.835Z,21.60
2018-06-10T06:33:35.823Z,21.70
2018-06-10T06:36:03.276Z,22.30
2018-06-10T06:38:30.630Z,22.00
2018-06-10T06:40:58.087Z,21.80
2018-06-10T06:43:25.481Z,21.90
2018-06-10T06:45:52.931Z,22.00
2018-06-10T06:48:20.363Z,22.10
2018-06-10T06:50:47.781Z,22.20
2018-06-10T06:53:15.185Z,22.20
2018-06-10T06:55:42.613Z,22.40
2018-06-10T06:58:09.996Z,22.50
2018-06-10T07:00:37.556Z,22.60
2018-06-10T07:03:05.010Z,22.60
2018-06-10T07:05:32.432Z,22.90
2018-06-10T07:07:59.859Z,22.70
2018-06-10T07:10:27.387Z,22.90
2018-06-10T07:12:54.814Z,22.90
2018-06-10T07:15:22.276Z,23.00
2018-06-10T07:17:49.746Z,23.00
2018-06-10T07:20:17.293Z,22.90
2018-06-10T07:22:44.715Z,23.00
2018-06-10T07:25:12.116Z,23.10
2018-06-10T07:30:07.007Z,23.20
2018-06-10T07:32:34.441Z,23.70
2018-06-10T07:35:01.913Z,24.30
2018-06-10T07:37:29.388Z,25.80
2018-06-10T07:39:56.816Z,27.50
2018-06-10T07:42:24.212Z,28.80
2018-06-10T07:44:51.618Z,29.70
2018-06-10T07:47:18.995Z,29.60
2018-06-10T07:49:46.413Z,29.30
2018-06-10T07:52:13.777Z,29.00
2018-06-10T07:54:41.164Z,28.40
2018-06-10T07:57:08.560Z,27.80
2018-06-10T07:59:36.720Z,27.40
2018-06-10T08:02:04.196Z,26.70
2018-06-10T08:04:31.661Z,26.60
2018-06-10T08:06:59.101Z,25.90
2018-06-10T08:09:26.502Z,25.50
2018-06-10T08:11:53.932Z,25.30
2018-06-10T08:14:21.389Z,25.00
2018-06-10T08:16:48.805Z,24.80
2018-06-10T08:19:16.327Z,24.80
2018-06-10T08:21:43.735Z,24.60
2018-06-10T08:24:11.151Z,24.40
2018-06-10T08:26:38.609Z,24.40
2018-06-10T08:29:06.105Z,24.60
2018-06-10T08:31:33.532Z,25.70
2018-06-10T08:34:00.985Z,26.50
2018-06-10T08:36:28.551Z,26.40
2018-06-10T08:38:55.976Z,26.30
2018-06-10T08:41:26.726Z,26.10
2018-06-10T08:43:54.034Z,25.90
2018-06-10T08:46:21.192Z,25.60
2018-06-10T08:48:48.404Z,25.50
2018-06-10T08:51:16.619Z,25.50
2018-06-10T08:53:43.857Z,25.50
2018-06-10T08:56:11.080Z,25.50
2018-06-10T08:58:38.330Z,25.40
2018-06-10T09:01:05.601Z,25.60
2018-06-10T09:03:32.845Z,25.50
2018-06-10T09:06:00.150Z,25.50
2018-06-10T09:08:27.335Z,25.40
2018-06-10T09:10:54.504Z,25.90
2018-06-10T09:13:21.728Z,25.60
2018-06-10T09:15:48.920Z,25.60
2018-06-10T09:18:16.113Z,25.80
2018-06-10T09:20:43.507Z,25.70
2018-06-10T09:23:10.780Z,25.90
2018-06-10T09:25:39.784Z,26.10
2018-06-10T09:28:07.020Z,26.10
2018-06-10T09:30:34.240Z,26.00
2018-06-10T09:33:01.448Z,26.00
2018-06-10T09:35:28.947Z,26.10
2018-06-10T09:37:56.108Z,26.20
2018-06-10T09:40:23.308Z,26.40
2018-06-10T09:42:50.536Z,26.30
2018-06-10T09:45:19.749Z,26.30
2018-06-10T09:47:46.988Z,26.30
2018-06-10T09:50:14.354Z,26.30
2018-06-10T09:52:41.592Z,26.20
2018-06-10T09:55:08.884Z,26.10
2018-06-10T09:57:36.116Z,26.00
2018-06-10T10:00:03.376Z,26.00
2018-06-10T10:02:30.567Z,25.70
2018-06-10T10:04:57.744Z,25.90
2018-06-10T10:07:25.120Z,25.60
2018-06-10T10:09:52.312Z,25.60
2018-06-10T10:12:19.508Z,25.60
2018-06-10T10:14:46.760Z,25.90
2018-06-10T10:17:13.944Z,25.80
2018-06-10T10:19:41.453Z,25.70
2018-06-10T10:22:08.896Z,25.80
2018-06-10T10:24:36.330Z,26.10
2018-06-10T10:27:03.786Z,25.70
2018-06-10T10:29:31.071Z,25.50
2018-06-10T10:31:58.571Z,25.80
2018-06-10T10:34:25.976Z,26.00
2018-06-10T10:36:53.505Z,26.10
2018-06-10T10:39:32.698Z,26.20
2018-06-10T10:42:00.025Z,26.30
2018-06-10T10:44:27.240Z,26.30
2018-06-10T10:46:54.495Z,26.20
2018-06-10T10:49:21.731Z,26.10
2018-06-10T10:51:49.029Z,26.30
2018-06-10T10:54:16.552Z,25.80
2018-06-10T10:56:43.934Z,26.10
2018-06-10T10:59:11.353Z,26.10
2018-06-10T11:01:38.781Z,26.20
2018-06-10T11:04:06.198Z,26.40
2018-06-10T11:06:33.557Z,26.20
2018-06-10T11:09:00.935Z,26.30
2018-06-10T11:11:28.303Z,26.30
2018-06-10T11:16:23.042Z,26.50
2018-06-10T11:18:50.414Z,26.60
2018-06-10T11:21:17.792Z,26.50
2018-06-10T11:23:45.290Z,26.50
2018-06-10T11:26:12.705Z,26.50
2018-06-10T11:28:40.225Z,26.50
2018-06-10T11:31:07.595Z,26.20
2018-06-10T11:33:34.970Z,26.30
2018-06-10T11:36:02.375Z,26.30
2018-06-10T11:38:29.726Z,26.30
2018-06-10T11:40:57.131Z,26.40
2018-06-10T11:43:25.129Z,26.20
2018-06-10T11:45:52.534Z,26.30
2018-06-10T11:48:22.080Z,26.40
2018-06-10T11:50:49.572Z,26.50
2018-06-10T11:53:16.954Z,26.50
2018-06-10T11:55:44.525Z,26.50
2018-06-10T11:58:11.908Z,26.60
2018-06-10T12:00:39.488Z,26.70
2018-06-10T12:03:06.911Z,26.80
2018-06-10T12:05:34.309Z,27.00
2018-06-10T12:08:01.654Z,27.00
2018-06-10T12:10:32.836Z,27.00
2018-06-10T12:13:00.150Z,27.00
2018-06-10T12:15:27.451Z,27.10
2018-06-10T12:17:54.761Z,27.00
2018-06-10T12:20:22.144Z,27.10
2018-06-10T12:22:49.559Z,27.40
2018-06-10T12:25:16.806Z,27.20
2018-06-10T12:27:46.432Z,27.20
2018-06-10T12:30:13.786Z,27.00
2018-06-10T12:32:41.070Z,26.90
2018-06-10T12:35:08.383Z,26.90
2018-06-10T12:37:35.790Z,26.80
2018-06-10T12:40:03.275Z,26.70
2018-06-10T12:42:30.740Z,26.70
2018-06-10T12:44:58.042Z,26.70
2018-06-10T12:47:25.417Z,26.70
2018-06-10T12:49:52.755Z,26.70
2018-06-10T12:52:20.081Z,26.80
2018-06-10T12:54:47.568Z,26.80
2018-06-10T12:57:14.952Z,26.80
2018-06-10T12:59:42.436Z,26.80
2018-06-10T13:02:09.851Z,26.80
2018-06-10T13:04:37.398Z,26.90
2018-06-10T13:07:04.875Z,26.90
2018-06-10T13:09:32.282Z,26.70
2018-06-10T13:11:59.770Z,26.70
2018-06-10T13:14:27.434Z,26.70
2018-06-10T13:16:54.794Z,26.70
2018-06-10T13:19:27.836Z,26.70
2018-06-10T13:21:55.218Z,26.70
2018-06-10T13:24:22.592Z,26.70
2018-06-10T13:26:49.966Z,26.70
2018-06-10T13:29:17.304Z,26.80
2018-06-10T13:31:44.771Z,26.80
2018-06-10T13:34:13.698Z,26.90
2018-06-10T13:36:41.026Z,26.80
2018-06-10T13:39:08.434Z,26.50
2018-06-10T13:41:35.847Z,26.70
2018-06-10T13:44:03.237Z,26.80
2018-06-10T13:46:30.624Z,26.90
2018-06-10T13:49:00.174Z,26.80
2018-06-10T13:51:27.635Z,26.90
2018-06-10T13:53:55.040Z,26.90
2018-06-10T13:56:22.382Z,27.00
2018-06-10T13:58:49.727Z,27.10
2018-06-10T14:01:17.075Z,27.10
2018-06-10T14:03:48.950Z,27.10
2018-06-10T14:06:16.303Z,27.10
2018-06-10T14:08:46.220Z,27.10
2018-06-10T14:11:13.931Z,27.10
2018-06-10T14:16:08.820Z,27.00
2018-06-10T14:18:36.181Z,27.00
2018-06-10T14:21:03.617Z,26.90
2018-06-10T14:23:30.975Z,26.80
2018-06-10T14:26:03.547Z,26.80
2018-06-10T14:28:30.962Z,26.80
2018-06-10T14:30:58.286Z,26.80
2018-06-10T14:33:25.790Z,26.60
2018-06-10T14:35:53.130Z,26.70
2018-06-10T14:38:20.466Z,26.70
2018-06-10T14:40:50.408Z,26.70
2018-06-10T14:43:17.729Z,26.80
2018-06-10T14:45:45.111Z,26.70
2018-06-10T14:48:12.573Z,26.70
2018-06-10T14:50:39.908Z,26.80
2018-06-10T14:53:12.455Z,26.90
2018-06-10T14:55:42.810Z,26.80
2018-06-10T14:58:10.324Z,26.80
2018-06-10T15:00:37.654Z,26.80
2018-06-10T15:03:05.094Z,26.80
2018-06-10T15:05:35.495Z,26.70
2018-06-10T15:08:03.049Z,26.70
2018-06-10T15:10:30.474Z,26.70
2018-06-10T15:13:01.639Z,26.70
2018-06-10T15:15:29.784Z,26.80
2018-06-10T15:17:57.095Z,26.80
2018-06-10T15:20:24.398Z,26.80
2018-06-10T15:22:51.759Z,26.80
2018-06-10T15:25:19.568Z,26.90
2018-06-10T15:27:46.893Z,26.80
2018-06-10T15:30:14.309Z,26.70
2018-06-10T15:32:41.606Z,26.80
2018-06-10T15:35:08.934Z,26.80
2018-06-10T15:37:36.407Z,26.80
2018-06-10T15:40:03.833Z,26.80
2018-06-10T15:42:31.258Z,26.80
2018-06-10T15:44:58.562Z,27.00
2018-06-10T15:47:25.902Z,26.70
2018-06-10T15:49:53.207Z,26.70
2018-06-10T15:52:20.548Z,26.60
2018-06-10T15:54:47.921Z,26.50
2018-06-10T15:57:15.419Z,26.50
2018-06-10T15:59:42.758Z,26.50
2018-06-10T16:02:10.095Z,26.50
2018-06-10T16:04:37.432Z,26.60
2018-06-10T16:07:04.803Z,26.20
2018-06-10T16:09:32.338Z,26.40
2018-06-10T16:11:59.662Z,26.40
2018-06-10T16:14:26.987Z,26.40
2018-06-10T16:16:54.330Z,26.40
2018-06-10T16:19:21.634Z,26.30
2018-06-10T16:21:49.048Z,26.40
2018-06-10T16:24:16.397Z,26.50
2018-06-10T16:26:44.039Z,26.60
2018-06-10T16:29:11.455Z,26.30
2018-06-10T16:31:38.791Z,26.70
2018-06-10T16:34:06.139Z,26.40
2018-06-10T16:36:33.403Z,26.40
2018-06-10T16:39:01.186Z,26.40
2018-06-10T16:41:28.770Z,26.50
2018-06-10T16:43:56.252Z,26.50
2018-06-10T16:46:23.662Z,26.40
2018-06-10T16:48:50.964Z,26.30
2018-06-10T16:51:18.861Z,26.30
2018-06-10T16:53:46.339Z,26.20
2018-06-10T16:56:13.939Z,26.30
2018-06-10T16:58:43.246Z,26.10
2018-06-10T17:01:13.434Z,26.20
2018-06-10T17:03:43.068Z,26.20
2018-06-10T17:06:11.494Z,26.20
2018-06-10T17:08:38.909Z,26.20
2018-06-10T17:11:11.203Z,26.00
2018-06-10T17:13:38.514Z,26.10
2018-06-10T17:16:05.869Z,26.10
2018-06-10T17:18:33.293Z,26.10
2018-06-10T17:21:00.702Z,25.90
2018-06-10T17:23:28.434Z,25.80
2018-06-10T17:25:56.063Z,25.70
2018-06-10T17:28:23.414Z,25.60
2018-06-10T17:30:50.785Z,25.70
2018-06-10T17:33:18.143Z,25.60
2018-06-10T17:35:45.629Z,25.60
2018-06-10T17:38:13.002Z,25.50
2018-06-10T17:40:40.588Z,25.40
2018-06-10T17:43:08.040Z,25.40
2018-06-10T17:45:35.863Z,25.40
2018-06-10T17:48:03.322Z,25.30
2018-06-10T17:50:30.750Z,25.40
2018-06-10T17:52:58.090Z,25.30
2018-06-10T17:55:25.943Z,25.30
2018-06-10T17:57:53.343Z,25.20
2018-06-10T18:00:20.795Z,25.20
2018-06-10T18:02:48.282Z,25.10
2018-06-10T18:05:15.797Z,25.50
2018-06-10T18:07:43.219Z,25.10
2018-06-10T18:10:10.862Z,25.10
2018-06-10T18:12:38.233Z,24.80
2018-06-10T18:15:05.457Z,24.80
2018-06-10T18:17:32.807Z,25.20
2018-06-10T18:20:00.117Z,25.20
2018-06-10T18:22:27.466Z,25.30
2018-06-10T18:24:55.409Z,24.90
2018-06-10T18:27:22.758Z,24.90
2018-06-10T18:29:50.213Z,24.70
2018-06-10T18:32:17.757Z,24.90
2018-06-10T18:34:45.091Z,24.70
2018-06-10T18:37:12.564Z,24.70
2018-06-10T18:39:39.848Z,24.80
2018-06-10T18:42:07.112Z,24.50
2018-06-10T18:44:34.555Z,24.50
2018-06-10T18:47:01.797Z,24.80
2018-06-10T18:49:29.324Z,24.50
2018-06-10T18:51:56.599Z,24.40
2018-06-10T18:54:23.865Z,24.60
2018-06-10T18:56:51.148Z,24.40
2018-06-10T18:59:18.437Z,24.60
2018-06-10T19:01:45.801Z,24.30
2018-06-10T19:06:40.431Z,24.20
2018-06-10T19:09:08.258Z,24.20
2018-06-10T19:11:35.564Z,24.20
2018-06-10T19:14:02.833Z,24.10
2018-06-10T19:16:30.159Z,24.10
2018-06-10T19:18:57.469Z,24.20
2018-06-10T19:21:24.779Z,23.60
2018-06-10T19:23:51.977Z,23.90
2018-06-10T19:26:19.736Z,24.10
2018-06-10T19:28:47.047Z,23.90
2018-06-10T19:31:14.889Z,24.00
2018-06-10T19:33:42.162Z,23.80
2018-06-10T19:36:09.533Z,24.30
2018-06-10T19:38:36.801Z,24.10
2018-06-10T19:41:04.099Z,23.80
2018-06-10T19:43:31.454Z,24.00
2018-06-10T19:45:58.842Z,23.60
2018-06-10T19:48:26.053Z,23.50
2018-06-10T19:50:53.885Z,23.40
2018-06-10T19:53:21.231Z,23.50
2018-06-10T19:55:49.466Z,23.40
2018-06-10T19:58:16.812Z,23.60
2018-06-10T20:00:44.247Z,23.40
2018-06-10T20:03:11.610Z,23.40
2018-06-10T20:05:38.872Z,23.20
2018-06-10T20:08:06.194Z,23.20
2018-06-10T20:10:33.540Z,23.60
2018-06-10T20:13:01.813Z,23.10
2018-06-10T20:15:29.123Z,23.10
2018-06-10T20:17:56.410Z,23.10
2018-06-10T20:20:23.716Z,23.20
2018-06-10T20:22:50.989Z,22.90
2018-06-10T20:25:18.336Z,22.80
2018-06-10T20:27:45.676Z,22.80
2018-06-10T20:30:13.126Z,23.10
2018-06-10T20:32:40.393Z,22.70
2018-06-10T20:35:07.608Z,23.10
2018-06-10T20:37:34.829Z,22.70
2018-06-10T20:40:02.109Z,23.20
2018-06-10T20:42:29.404Z,22.60
2018-06-10T20:44:56.758Z,22.60
2018-06-10T20:47:24.145Z,22.70
2018-06-10T20:49:51.447Z,22.60
2018-06-10T20:52:18.892Z,22.50
2018-06-10T20:54:46.337Z,22.50
2018-06-10T20:57:13.728Z,22.80
2018-06-10T20:59:40.972Z,22.40
2018-06-10T21:02:08.269Z,22.50
2018-06-10T21:04:35.512Z,22.30
2018-06-10T21:07:02.809Z,22.10
2018-06-10T21:09:30.169Z,22.40
2018-06-10T21:11:57.447Z,22.50
2018-06-10T21:14:24.831Z,22.00
2018-06-10T21:16:52.075Z,22.00
2018-06-10T21:19:19.387Z,21.90
2018-06-10T21:21:46.817Z,21.90
2018-06-10T21:24:14.101Z,22.20
2018-06-10T21:26:41.352Z,22.10
2018-06-10T21:29:08.710Z,21.60
2018-06-10T21:31:36.103Z,21.90
2018-06-10T21:34:03.399Z,21.40
2018-06-10T21:36:30.680Z,21.30
2018-06-10T21:38:58.147Z,21.40
2018-06-10T21:41:25.560Z,21.30
2018-06-10T21:43:52.996Z,21.30
2018-06-10T21:46:20.310Z,21.10
2018-06-10T21:48:47.699Z,21.20
2018-06-10T21:51:15.044Z,21.10
2018-06-10T21:53:42.541Z,21.50
2018-06-10T21:56:09.816Z,21.50
2018-06-10T21:58:37.185Z,21.10
2018-06-10T22:01:04.494Z,20.90
2018-06-10T22:03:31.861Z,20.50
2018-06-10T22:05:59.133Z,21.10
2018-06-10T22:08:39.614Z,20.70
2018-06-10T22:11:06.988Z,20.70
2018-06-10T22:13:34.479Z,21.20
2018-06-10T22:16:01.779Z,20.70
2018-06-10T22:18:29.092Z,20.70
2018-06-10T22:20:56.394Z,20.60
2018-06-10T22:23:23.790Z,20.60
2018-06-10T22:25:51.231Z,20.60
2018-06-10T22:28:18.592Z,20.50
2018-06-10T22:30:46.051Z,20.70
2018-06-10T22:33:13.815Z,20.60
2018-06-10T22:35:42.129Z,20.50
2018-06-10T22:38:15.820Z,20.40
2018-06-10T22:40:43.136Z,20.30
2018-06-10T22:43:10.501Z,20.30
2018-06-10T22:45:37.783Z,20.10
2018-06-10T22:48:05.171Z,20.60
2018-06-10T22:50:32.469Z,20.10
2018-06-10T22:54:25.024Z,20.10
2018-06-10T22:56:52.549Z,20.20
2018-06-10T22:59:30.128Z,20.10
2018-06-10T23:01:57.751Z,20.10
2018-06-10T23:04:25.237Z,20.30
2018-06-10T23:06:52.824Z,19.70
2018-06-10T23:09:22.516Z,20.00
2018-06-10T23:11:50.017Z,20.00
2018-06-10T23:14:17.509Z,19.90
2018-06-10T23:16:45.040Z,20.00
2018-06-10T23:19:12.501Z,19.70
2018-06-10T23:21:39.996Z,20.30
2018-06-10T23:24:07.496Z,19.90
2018-06-10T23:26:35.022Z,19.90
2018-06-10T23:29:02.533Z,19.90
2018-06-10T23:31:30.828Z,20.10
2018-06-10T23:33:58.256Z,19.90
2018-06-10T23:36:25.840Z,19.80
2018-06-10T23:38:53.469Z,19.80
2018-06-10T23:41:20.957Z,19.80
2018-06-10T23:43:48.525Z,20.00
2018-06-10T23:48:43.516Z,19.70
2018-06-10T23:51:11.045Z,19.70
2018-06-10T23:53:38.614Z,19.30
2018-06-10T23:56:06.121Z,19.50
2018-06-10T23:58:33.704Z,19.60
